Time;durP1;ratioP1;P1;durP2;ratioP2;P2;SDS_P1;SDS_P2;PMS_P1;PMS_P2;Temp;Humidity;BMP_temperature;BMP_pressure;BME280_temperature;BME280_humidity;BME280_pressure;Samples;Min_cycle;Max_cycle;Signal;HPM_P1;HPM_P2
2023/08/22 00:00:45;;;;;;;8.73;3.47;;;14.70;99.90;;;;;;5003295;28;20034;-80
2023/08/22 00:03:11;;;;;;;7.88;3.05;;;14.60;99.90;;;;;;5024678;28;20037;-80
2023/08/22 00:05:37;;;;;;;5.85;2.60;;;14.60;99.90;;;;;;5025086;28;20029;-80
2023/08/22 00:08:05;;;;;;;8.43;2.75;;;14.60;99.90;;;;;;5017071;28;20026;-80
2023/08/22 00:10:31;;;;;;;6.45;3.08;;;14.50;99.90;;;;;;5000766;28;20081;-80
2023/08/22 00:12:57;;;;;;;5.63;2.70;;;14.50;99.90;;;;;;4995578;28;20485;-80
2023/08/22 00:15:23;;;;;;;3.40;2.58;;;14.50;99.90;;;;;;5025231;28;20060;-80
2023/08/22 00:17:50;;;;;;;5.45;2.80;;;14.50;99.90;;;;;;5014658;28;20049;-81
2023/08/22 00:20:16;;;;;;;6.00;2.72;;;14.40;99.90;;;;;;5004325;28;20018;-80
2023/08/22 00:22:42;;;;;;;4.43;3.00;;;14.40;99.90;;;;;;5023145;28;20056;-80
2023/08/22 00:25:10;;;;;;;5.38;3.10;;;14.40;99.90;;;;;;5023059;28;20029;-80
2023/08/22 00:27:35;;;;;;;5.70;2.92;;;14.30;99.90;;;;;;5006070;28;20041;-81
2023/08/22 00:30:02;;;;;;;9.25;3.08;;;14.40;99.90;;;;;;5010935;28;20029;-80
2023/08/22 00:32:29;;;;;;;7.25;3.80;;;14.30;99.90;;;;;;5004187;28;20040;-80
2023/08/22 00:34:54;;;;;;;6.70;3.60;;;14.30;99.90;;;;;;4986923;28;20117;-80
2023/08/22 00:37:20;;;;;;;8.20;3.35;;;14.30;99.90;;;;;;5019596;28;20590;-81
2023/08/22 00:39:45;;;;;;;5.80;3.53;;;14.30;99.90;;;;;;5020187;28;20037;-80
2023/08/22 00:42:11;;;;;;;5.63;3.22;;;14.30;99.90;;;;;;5019330;28;20033;-80
2023/08/22 00:44:37;;;;;;;8.43;3.17;;;14.20;99.90;;;;;;5013112;28;20113;-81
2023/08/22 00:47:03;;;;;;;5.68;3.40;;;14.30;99.90;;;;;;5011397;28;20030;-81
2023/08/22 00:49:29;;;;;;;5.63;3.30;;;14.30;99.90;;;;;;5013605;28;20034;-80
2023/08/22 00:51:58;;;;;;;6.93;3.55;;;14.30;99.90;;;;;;5005820;28;20121;-80
2023/08/22 00:54:26;;;;;;;7.45;3.25;;;14.30;99.90;;;;;;4995540;28;20444;-81
2023/08/22 00:56:53;;;;;;;5.93;3.38;;;14.30;99.90;;;;;;4999037;28;20477;-80
2023/08/22 00:59:19;;;;;;;5.97;3.63;;;14.40;99.90;;;;;;4998640;28;20034;-80
2023/08/22 01:01:45;;;;;;;6.68;3.20;;;14.50;99.90;;;;;;4998032;28;20041;-80
2023/08/22 01:04:11;;;;;;;5.53;2.95;;;14.60;99.90;;;;;;4996379;28;20033;-80
2023/08/22 01:06:46;;;;;;;6.82;3.40;;;14.70;99.90;;;;;;4986212;28;20037;-80
2023/08/22 01:09:48;;;;;;;10.70;3.13;;;14.80;99.90;;;;;;4984898;28;20096;-80
2023/08/22 01:12:38;;;;;;;4.53;3.00;;;15.00;99.90;;;;;;5002262;28;20634;-80
2023/08/22 01:15:18;;;;;;;4.30;2.78;;;15.10;99.90;;;;;;4998501;28;20504;-80
2023/08/22 01:17:43;;;;;;;6.28;2.67;;;15.20;99.90;;;;;;5007017;28;20088;-80
2023/08/22 01:20:12;;;;;;;4.65;2.63;;;15.30;99.90;;;;;;4992997;28;20030;-79
2023/08/22 01:22:41;;;;;;;4.22;2.50;;;15.30;99.90;;;;;;5004810;28;20032;-80
2023/08/22 01:25:08;;;;;;;6.07;2.50;;;15.40;99.90;;;;;;5014963;28;20120;-80
2023/08/22 01:27:57;;;;;;;6.05;2.50;;;15.40;99.90;;;;;;4984186;28;20613;-80
2023/08/22 01:30:45;;;;;;;7.10;3.03;;;15.40;99.90;;;;;;5011008;28;20068;-80
2023/08/22 01:33:26;;;;;;;5.63;2.55;;;15.50;99.90;;;;;;5010932;28;20034;-80
2023/08/22 01:35:55;;;;;;;5.60;2.60;;;15.50;99.90;;;;;;4982527;28;20048;-80
2023/08/22 01:38:23;;;;;;;6.03;2.78;;;15.60;99.90;;;;;;5010608;28;20120;-80
2023/08/22 01:40:51;;;;;;;7.55;3.03;;;15.70;99.90;;;;;;4988033;28;20034;-80
2023/08/22 01:43:18;;;;;;;6.85;2.85;;;15.80;99.90;;;;;;4982557;28;20496;-80
2023/08/22 01:45:44;;;;;;;5.70;2.75;;;15.80;99.90;;;;;;4996710;28;20026;-80
2023/08/22 01:48:09;;;;;;;7.63;3.10;;;15.90;99.90;;;;;;5004867;28;20795;-80
2023/08/22 01:50:35;;;;;;;6.20;3.13;;;15.90;99.90;;;;;;5000903;28;20028;-78
2023/08/22 01:53:01;;;;;;;6.38;2.85;;;15.90;99.90;;;;;;5003560;28;20101;-80
2023/08/22 01:55:26;;;;;;;6.45;2.80;;;15.90;99.90;;;;;;4987143;28;20018;-80
2023/08/22 01:57:53;;;;;;;7.10;2.67;;;15.90;99.90;;;;;;4996769;28;20570;-80
2023/08/22 02:00:19;;;;;;;7.40;2.60;;;15.90;99.90;;;;;;5014696;28;20049;-80
2023/08/22 02:02:44;;;;;;;7.40;2.40;;;15.90;99.90;;;;;;5013789;28;20064;-79
2023/08/22 02:05:10;;;;;;;6.75;2.60;;;16.00;99.90;;;;;;5014761;28;20402;-80
2023/08/22 02:07:35;;;;;;;4.50;2.33;;;16.00;99.90;;;;;;4987487;28;20061;-80
2023/08/22 02:10:03;;;;;;;7.30;2.38;;;16.00;99.90;;;;;;4999233;28;20026;-80
2023/08/22 02:12:29;;;;;;;6.63;2.22;;;16.00;99.90;;;;;;5003893;28;20385;-80
2023/08/22 02:14:55;;;;;;;4.55;2.10;;;16.00;99.90;;;;;;4989574;28;20062;-80
2023/08/22 02:17:20;;;;;;;5.25;2.28;;;16.00;99.90;;;;;;4988949;28;20045;-80
2023/08/22 02:19:46;;;;;;;5.90;2.30;;;16.00;99.90;;;;;;4997783;28;20447;-80
2023/08/22 02:22:12;;;;;;;4.28;2.10;;;16.00;99.90;;;;;;5001348;28;20639;-80
2023/08/22 02:24:37;;;;;;;3.75;2.17;;;16.00;99.90;;;;;;5014947;28;20137;-79
2023/08/22 02:27:06;;;;;;;4.97;2.08;;;16.00;99.90;;;;;;5000740;28;20072;-80
2023/08/22 02:29:32;;;;;;;5.88;2.13;;;16.00;99.90;;;;;;5011578;28;20026;-80
2023/08/22 02:31:57;;;;;;;3.40;1.98;;;16.00;99.90;;;;;;5019679;28;20045;-80
2023/08/22 02:34:24;;;;;;;5.65;2.17;;;16.00;99.90;;;;;;5001545;28;20124;-80
2023/08/22 02:36:50;;;;;;;3.58;2.08;;;15.90;99.90;;;;;;5012247;28;20069;-81
2023/08/22 02:39:16;;;;;;;4.60;2.33;;;15.80;99.90;;;;;;4987643;28;20493;-80
2023/08/22 02:41:42;;;;;;;4.22;2.30;;;15.70;99.90;;;;;;4998314;28;20033;-80
2023/08/22 02:44:07;;;;;;;6.43;2.00;;;15.50;99.90;;;;;;5018552;28;20521;-80
2023/08/22 02:46:33;;;;;;;7.70;2.22;;;15.50;99.90;;;;;;4983887;28;20033;-80
2023/08/22 02:48:59;;;;;;;3.60;2.20;;;15.40;99.90;;;;;;5017230;28;20025;-79
2023/08/22 02:51:24;;;;;;;5.28;2.20;;;15.40;99.90;;;;;;4981132;28;20041;-79
2023/08/22 02:53:50;;;;;;;5.72;2.13;;;15.40;99.90;;;;;;4997852;28;20120;-80
2023/08/22 02:56:15;;;;;;;4.80;2.40;;;15.40;99.90;;;;;;4999782;28;20065;-80
2023/08/22 02:58:41;;;;;;;3.60;1.85;;;15.30;99.90;;;;;;5000572;28;20049;-80
2023/08/22 03:01:07;;;;;;;4.28;2.20;;;15.30;99.90;;;;;;5014993;28;20120;-80
2023/08/22 03:03:33;;;;;;;8.77;2.55;;;15.30;99.90;;;;;;5013818;28;20370;-80
2023/08/22 03:06:00;;;;;;;7.85;2.03;;;15.30;99.90;;;;;;5012730;28;20049;-79
2023/08/22 03:08:26;;;;;;;6.90;2.00;;;15.30;99.90;;;;;;5003146;28;20021;-80
2023/08/22 03:10:52;;;;;;;9.30;2.55;;;15.20;99.90;;;;;;5005612;28;20026;-79
2023/08/22 03:13:17;;;;;;;5.72;2.00;;;15.20;99.90;;;;;;5001933;28;20121;-79
2023/08/22 03:15:44;;;;;;;5.97;2.20;;;15.20;99.90;;;;;;5022100;28;20030;-80
2023/08/22 03:18:09;;;;;;;5.30;2.17;;;15.10;99.90;;;;;;4998288;28;20058;-79
2023/08/22 03:20:35;;;;;;;4.85;2.58;;;15.10;99.90;;;;;;5011232;28;20176;-80
2023/08/22 03:23:00;;;;;;;6.90;2.42;;;15.00;99.90;;;;;;5023744;28;20033;-79
2023/08/22 03:25:26;;;;;;;3.47;2.33;;;15.00;99.90;;;;;;5024305;28;20095;-80
2023/08/22 03:27:52;;;;;;;4.22;2.10;;;14.90;99.90;;;;;;5015007;28;20029;-79
2023/08/22 03:30:17;;;;;;;3.95;2.15;;;14.90;99.90;;;;;;5011090;28;20033;-79
2023/08/22 03:32:43;;;;;;;8.25;2.22;;;15.00;99.90;;;;;;5005031;28;20036;-80
2023/08/22 03:35:09;;;;;;;5.80;2.15;;;14.90;99.90;;;;;;5002506;28;20104;-79
2023/08/22 03:37:34;;;;;;;5.90;2.85;;;15.00;99.90;;;;;;5014117;28;20542;-80
2023/08/22 03:40:01;;;;;;;5.82;2.78;;;15.00;99.90;;;;;;5019336;28;20157;-81
2023/08/22 03:42:27;;;;;;;4.28;2.28;;;15.00;99.90;;;;;;5004113;28;20079;-81
2023/08/22 03:44:52;;;;;;;7.15;2.78;;;15.00;99.90;;;;;;5004144;28;20018;-81
2023/08/22 03:47:18;;;;;;;7.35;2.72;;;15.00;99.90;;;;;;5003865;28;20035;-80
2023/08/22 03:49:43;;;;;;;7.20;2.97;;;14.90;99.90;;;;;;5003413;28;20385;-80
2023/08/22 03:52:09;;;;;;;6.30;3.95;;;14.90;99.90;;;;;;5018731;28;20089;-80
2023/08/22 03:54:35;;;;;;;11.27;5.47;;;14.90;99.90;;;;;;5011281;28;20059;-79
2023/08/22 03:57:00;;;;;;;12.23;5.70;;;14.80;99.90;;;;;;5020008;28;20088;-81
2023/08/22 03:59:26;;;;;;;13.20;5.97;;;14.80;99.90;;;;;;5000574;28;20038;-80
2023/08/22 04:01:51;;;;;;;12.25;5.80;;;14.80;99.90;;;;;;5001159;28;20026;-80
2023/08/22 04:04:17;;;;;;;10.32;5.55;;;14.90;99.90;;;;;;5013769;28;20029;-81
2023/08/22 04:06:43;;;;;;;8.98;4.75;;;14.80;99.90;;;;;;5006807;28;20119;-80
2023/08/22 04:09:09;;;;;;;7.75;4.57;;;14.90;99.90;;;;;;4985774;28;20025;-81
2023/08/22 04:11:35;;;;;;;8.20;5.10;;;14.90;99.90;;;;;;5008780;28;20026;-81
2023/08/22 04:14:00;;;;;;;8.60;4.20;;;14.80;99.90;;;;;;5005157;28;20054;-81
2023/08/22 04:16:26;;;;;;;9.52;3.97;;;14.80;99.90;;;;;;5018996;28;20039;-81
2023/08/22 04:18:51;;;;;;;8.07;3.72;;;14.70;99.90;;;;;;5000842;28;20041;-81
2023/08/22 04:21:17;;;;;;;8.80;4.10;;;14.70;99.90;;;;;;5001518;28;20442;-80
2023/08/22 04:23:43;;;;;;;8.40;4.13;;;14.70;99.90;;;;;;5011494;28;20088;-81
2023/08/22 04:26:08;;;;;;;5.55;3.65;;;14.70;99.90;;;;;;5020259;28;20095;-80
2023/08/22 04:28:34;;;;;;;5.22;3.58;;;14.70;99.90;;;;;;5019692;28;20223;-81
2023/08/22 04:31:00;;;;;;;9.10;4.45;;;14.60;99.90;;;;;;5012040;28;20039;-80
2023/08/22 04:33:26;;;;;;;10.35;4.60;;;14.60;99.90;;;;;;5019360;28;20056;-79
2023/08/22 04:35:52;;;;;;;10.70;5.07;;;14.60;99.90;;;;;;5019346;28;20464;-81
2023/08/22 04:38:17;;;;;;;8.30;4.63;;;14.60;99.90;;;;;;5003605;28;20519;-81
2023/08/22 04:40:43;;;;;;;8.13;5.30;;;14.60;99.90;;;;;;4996553;28;20034;-81
2023/08/22 04:43:09;;;;;;;7.53;4.10;;;14.60;99.90;;;;;;4981954;28;20042;-80
2023/08/22 04:45:35;;;;;;;7.13;3.35;;;14.70;99.90;;;;;;5002784;28;20390;-81
2023/08/22 04:48:01;;;;;;;9.38;3.80;;;14.70;99.90;;;;;;5003268;28;20030;-81
2023/08/22 04:50:29;;;;;;;6.25;3.28;;;14.70;99.90;;;;;;5004248;28;20579;-80
2023/08/22 04:52:54;;;;;;;8.15;3.10;;;14.70;99.90;;;;;;5013055;28;20042;-82
2023/08/22 04:55:20;;;;;;;7.90;3.35;;;14.70;99.90;;;;;;5015027;28;20073;-81
2023/08/22 04:57:46;;;;;;;5.88;3.05;;;14.70;99.90;;;;;;4985973;28;20041;-81
2023/08/22 05:00:13;;;;;;;8.48;3.90;;;14.70;99.90;;;;;;5002479;28;20021;-81
2023/08/22 05:02:38;;;;;;;12.48;4.05;;;14.70;99.90;;;;;;4999588;28;20537;-82
2023/08/22 05:05:06;;;;;;;7.13;3.65;;;14.70;99.90;;;;;;4981344;28;20049;-82
2023/08/22 05:07:32;;;;;;;7.25;3.85;;;14.80;99.90;;;;;;5017493;28;20041;-82
2023/08/22 05:09:57;;;;;;;8.43;4.30;;;14.90;99.90;;;;;;5009381;28;20099;-81
2023/08/22 05:12:23;;;;;;;7.22;3.53;;;14.90;99.90;;;;;;4998506;28;20116;-81
2023/08/22 05:14:48;;;;;;;7.95;3.33;;;15.00;99.90;;;;;;5000284;28;20180;-80
2023/08/22 05:17:14;;;;;;;6.28;3.42;;;15.00;99.90;;;;;;4999161;28;20046;-81
2023/08/22 05:19:40;;;;;;;6.03;3.30;;;15.10;99.90;;;;;;4993031;28;20621;-81
2023/08/22 05:22:06;;;;;;;5.47;3.45;;;15.20;99.90;;;;;;5018049;28;20112;-81
2023/08/22 05:24:31;;;;;;;4.93;2.78;;;15.20;99.90;;;;;;5005170;28;20083;-82
2023/08/22 05:26:57;;;;;;;6.25;3.20;;;15.30;99.90;;;;;;4982649;28;20137;-81
2023/08/22 05:29:23;;;;;;;5.72;2.95;;;15.30;99.90;;;;;;4998767;28;20032;-81
2023/08/22 05:31:49;;;;;;;6.13;3.08;;;15.40;99.90;;;;;;4999240;28;20555;-82
2023/08/22 05:34:14;;;;;;;4.68;2.55;;;15.40;99.90;;;;;;5012515;28;20038;-82
2023/08/22 05:36:40;;;;;;;5.43;2.30;;;15.50;99.90;;;;;;5003269;28;20059;-82
2023/08/22 05:39:10;;;;;;;5.63;2.30;;;15.60;99.90;;;;;;4992484;28;20041;-81
2023/08/22 05:41:36;;;;;;;3.30;1.85;;;15.70;99.90;;;;;;5018671;28;20112;-82
2023/08/22 05:44:01;;;;;;;4.90;2.25;;;15.80;99.90;;;;;;5020630;28;20140;-81
2023/08/22 05:46:27;;;;;;;3.33;2.50;;;15.90;99.90;;;;;;5021036;28;20025;-81
2023/08/22 05:48:53;;;;;;;4.47;2.55;;;16.00;99.90;;;;;;5009183;28;20029;-81
2023/08/22 05:51:18;;;;;;;5.10;2.50;;;16.00;99.90;;;;;;5001072;28;20049;-82
2023/08/22 05:53:44;;;;;;;6.25;2.70;;;16.20;99.90;;;;;;5008379;28;20046;-82
2023/08/22 05:56:09;;;;;;;6.82;2.70;;;16.20;99.90;;;;;;5001972;28;20037;-82
2023/08/22 05:58:35;;;;;;;4.38;2.60;;;16.30;99.90;;;;;;5002462;28;20092;-82
2023/08/22 06:01:10;;;;;;;8.35;2.72;;;16.40;99.90;;;;;;5005382;28;20026;-81
2023/08/22 06:03:38;;;;;;;3.65;2.00;;;16.40;99.90;;;;;;4992659;28;20037;-80
2023/08/22 06:06:04;;;;;;;3.85;1.77;;;16.50;99.90;;;;;;4980406;28;20516;-81
2023/08/22 06:08:30;;;;;;;16.10;9.23;;;16.60;99.90;;;;;;4998190;28;20026;-80
2023/08/22 06:10:55;;;;;;;7.80;3.80;;;16.70;99.90;;;;;;5018700;28;20033;-81
2023/08/22 06:13:21;;;;;;;7.45;2.20;;;16.80;99.90;;;;;;4996098;28;20072;-81
2023/08/22 06:15:46;;;;;;;4.32;1.35;;;16.90;99.90;;;;;;4996658;28;20026;-80
2023/08/22 06:18:12;;;;;;;2.15;1.20;;;17.10;99.90;;;;;;4987487;28;20041;-81
2023/08/22 06:20:41;;;;;;;5.55;1.38;;;17.10;99.90;;;;;;4996942;28;20064;-81
2023/08/22 06:23:06;;;;;;;4.15;1.80;;;17.20;99.90;;;;;;4997868;28;20081;-81
2023/08/22 06:25:33;;;;;;;3.58;2.15;;;17.20;99.90;;;;;;4979792;28;20065;-81
2023/08/22 06:27:58;;;;;;;4.97;2.28;;;17.30;99.90;;;;;;4993228;28;20132;-82
2023/08/22 06:30:24;;;;;;;6.00;2.53;;;17.20;99.90;;;;;;4997866;28;20088;-81
2023/08/22 06:32:49;;;;;;;6.05;2.88;;;17.20;99.90;;;;;;5003865;28;20030;-80
2023/08/22 06:35:15;;;;;;;5.15;2.65;;;17.20;99.90;;;;;;5013127;28;20038;-81
2023/08/22 06:37:40;;;;;;;5.30;2.42;;;17.20;99.90;;;;;;4986850;28;20073;-81
2023/08/22 06:40:07;;;;;;;7.30;2.65;;;17.20;99.90;;;;;;5003295;28;20123;-80
2023/08/22 06:42:32;;;;;;;4.28;2.58;;;17.20;99.90;;;;;;4962176;28;20038;-80
2023/08/22 06:44:58;;;;;;;6.47;2.47;;;17.30;99.90;;;;;;4996299;28;20507;-81
2023/08/22 06:47:24;;;;;;;4.20;2.08;;;17.40;99.90;;;;;;5005406;28;20156;-81
2023/08/22 06:49:49;;;;;;;6.25;2.97;;;17.40;99.90;;;;;;4997339;28;20021;-81
2023/08/22 06:52:15;;;;;;;5.07;2.72;;;17.40;99.90;;;;;;5006968;28;20029;-80
2023/08/22 06:54:41;;;;;;;5.40;2.90;;;17.50;99.90;;;;;;5002014;28;20037;-81
2023/08/22 06:57:07;;;;;;;4.47;2.60;;;17.50;99.90;;;;;;5003569;28;20040;-81
2023/08/22 06:59:33;;;;;;;8.05;3.08;;;17.50;99.90;;;;;;4997000;28;20064;-81
2023/08/22 07:01:58;;;;;;;5.93;2.80;;;17.50;99.90;;;;;;4984167;28;20504;-80
2023/08/22 07:04:24;;;;;;;7.03;2.53;;;17.60;99.90;;;;;;4998433;28;20117;-80
2023/08/22 07:06:50;;;;;;;6.65;2.35;;;17.60;99.90;;;;;;4981981;28;20072;-80
2023/08/22 07:09:15;;;;;;;5.68;2.20;;;17.60;99.90;;;;;;4996121;28;20171;-80
2023/08/22 07:11:42;;;;;;;6.32;2.53;;;17.60;99.90;;;;;;4987078;28;20041;-79
2023/08/22 07:14:08;;;;;;;5.40;2.38;;;17.70;99.90;;;;;;5004733;28;20072;-81
2023/08/22 07:16:33;;;;;;;6.20;2.10;;;17.80;99.90;;;;;;5006421;28;20124;-80
2023/08/22 07:18:59;;;;;;;3.35;1.70;;;17.90;99.90;;;;;;5010533;28;20121;-80
2023/08/22 07:21:25;;;;;;;5.60;1.90;;;18.00;99.90;;;;;;4994048;28;20041;-79
2023/08/22 07:23:51;;;;;;;5.20;1.58;;;18.10;99.90;;;;;;4997535;28;20088;-79
2023/08/22 07:26:16;;;;;;;2.83;1.73;;;18.20;99.90;;;;;;5000195;28;20117;-80
2023/08/22 07:28:42;;;;;;;5.72;2.17;;;18.20;99.90;;;;;;4982986;28;20030;-79
2023/08/22 07:31:08;;;;;;;6.20;2.75;;;18.20;99.90;;;;;;4989629;28;20058;-79
2023/08/22 07:33:33;;;;;;;6.15;2.08;;;18.40;99.90;;;;;;4991241;28;20945;-79
2023/08/22 07:36:00;;;;;;;3.42;1.55;;;18.50;99.90;;;;;;4988022;28;20026;-80
2023/08/22 07:38:25;;;;;;;4.50;1.25;;;18.70;99.90;;;;;;4990188;28;20049;-77
2023/08/22 07:40:51;;;;;;;8.30;1.97;;;18.80;99.90;;;;;;3953913;28;10000785;-78
2023/08/22 07:43:19;;;;;;;5.72;2.30;;;18.90;99.90;;;;;;4714160;28;10000556;-79
2023/08/22 07:45:45;;;;;;;6.65;1.65;;;19.00;99.90;;;;;;4629081;28;9999853;-80
2023/08/22 07:48:10;;;;;;;9.88;4.95;;;19.10;99.90;;;;;;4978938;28;20085;-80
2023/08/22 07:50:36;;;;;;;8.32;5.00;;;19.20;99.90;;;;;;4955673;28;20061;-80
2023/08/22 07:53:04;;;;;;;14.23;5.68;;;19.20;99.90;;;;;;4971117;28;20058;-79
2023/08/22 07:55:30;;;;;;;8.23;5.57;;;19.40;99.90;;;;;;4973393;28;20590;-79
2023/08/22 07:57:55;;;;;;;8.68;4.43;;;19.60;99.90;;;;;;4966852;28;20062;-79
2023/08/22 08:00:22;;;;;;;7.82;3.15;;;19.80;99.90;;;;;;4968554;28;20109;-79
2023/08/22 08:02:49;;;;;;;6.00;2.88;;;19.90;99.90;;;;;;4970665;28;20042;-79
2023/08/22 08:05:15;;;;;;;6.15;2.28;;;19.90;99.90;;;;;;4965953;28;20037;-79
2023/08/22 08:07:41;;;;;;;8.13;2.67;;;20.30;99.90;;;;;;4968500;28;20078;-79
2023/08/22 08:10:07;;;;;;;8.60;3.00;;;20.80;99.90;;;;;;4974399;28;20098;-79
2023/08/22 08:12:33;;;;;;;6.38;2.70;;;21.40;99.90;;;;;;4980965;28;20127;-80
2023/08/22 08:14:58;;;;;;;7.70;2.50;;;22.50;99.90;;;;;;5006443;28;20081;-79
2023/08/22 08:17:25;;;;;;;4.10;2.10;;;24.00;99.90;;;;;;4999443;28;20041;-79
2023/08/22 08:19:51;;;;;;;6.53;2.20;;;24.70;99.90;;;;;;5003654;28;20072;-79
2023/08/22 08:22:16;;;;;;;3.00;2.13;;;24.80;99.90;;;;;;4995676;28;20108;-78
2023/08/22 08:24:43;;;;;;;4.88;1.98;;;24.70;99.90;;;;;;4998406;28;20033;-79
2023/08/22 08:27:08;;;;;;;4.63;1.90;;;24.40;99.90;;;;;;5000547;28;20455;-79
2023/08/22 08:29:34;;;;;;;5.45;2.00;;;24.10;99.90;;;;;;4995424;28;20117;-79
2023/08/22 08:32:00;;;;;;;4.20;1.15;;;25.00;99.90;;;;;;5000235;28;20046;-78
2023/08/22 08:34:26;;;;;;;4.07;0.82;;;26.90;99.90;;;;;;4999468;28;20038;-79
2023/08/22 08:36:51;;;;;;;4.15;0.95;;;29.50;99.90;;;;;;5002432;28;20045;-79
2023/08/22 08:39:17;;;;;;;6.43;0.70;;;32.00;97.60;;;;;;5023493;23;20053;-74
2023/08/22 08:42:04;;;;;;;3.65;0.60;;;34.00;85.40;;;;;;5030788;28;20548;-74
2023/08/22 08:44:33;;;;;;;3.08;0.80;;;33.80;77.50;;;;;;5031572;28;20313;-74
2023/08/22 08:47:00;;;;;;;4.72;0.70;;;32.70;78.50;;;;;;5030080;28;20032;-74
2023/08/22 08:49:25;;;;;;;5.20;0.77;;;31.10;81.30;;;;;;5039437;28;20427;-74
2023/08/22 08:51:52;;;;;;;4.95;1.35;;;29.90;87.50;;;;;;5033792;28;20044;-73
2023/08/22 08:54:23;;;;;;;3.53;0.82;;;28.80;92.90;;;;;;5025656;28;20061;-74
2023/08/22 08:56:48;;;;;;;4.03;1.08;;;27.90;97.10;;;;;;5027603;28;20025;-74
2023/08/22 08:59:14;;;;;;;6.55;1.00;;;27.20;98.70;;;;;;5005577;28;20072;-74
2023/08/22 09:01:43;;;;;;;3.65;0.93;;;26.80;99.90;;;;;;5007773;28;20518;-75
2023/08/22 09:04:10;;;;;;;3.80;0.80;;;26.20;99.90;;;;;;5024196;28;20035;-74
2023/08/22 09:06:37;;;;;;;5.68;0.90;;;25.90;99.90;;;;;;5023220;28;20045;-74
2023/08/22 09:09:08;;;;;;;3.00;0.80;;;25.70;99.90;;;;;;5027166;28;20047;-74
2023/08/22 09:11:35;;;;;;;3.10;0.60;;;26.50;99.90;;;;;;5027693;28;20108;-74
2023/08/22 09:14:01;;;;;;;5.10;0.73;;;28.30;99.90;;;;;;5031199;28;20087;-74
2023/08/22 09:16:30;;;;;;;5.18;0.90;;;29.10;97.00;;;;;;5029678;28;20033;-73
2023/08/22 09:18:59;;;;;;;5.72;0.80;;;28.70;97.20;;;;;;5016715;28;20084;-74
2023/08/22 09:21:25;;;;;;;2.93;0.63;;;28.50;98.40;;;;;;5018711;28;20024;-74
2023/08/22 09:23:51;;;;;;;3.08;0.60;;;28.00;98.10;;;;;;5020637;28;20032;-74
2023/08/22 09:26:24;;;;;;;5.32;0.60;;;27.70;97.60;;;;;;5031416;28;20551;-74
2023/08/22 09:28:50;;;;;;;4.82;0.90;;;27.00;98.90;;;;;;5029881;28;20480;-74
2023/08/22 09:31:23;;;;;;;3.60;0.90;;;26.50;99.90;;;;;;5031725;28;20033;-74
2023/08/22 09:33:50;;;;;;;3.45;0.98;;;26.50;99.90;;;;;;5032571;28;20276;-74
2023/08/22 09:36:20;;;;;;;8.30;1.77;;;26.40;99.90;;;;;;5011011;28;20067;-73
2023/08/22 09:38:58;;;;;;;3.95;1.10;;;26.30;99.90;;;;;;5031160;28;20052;-74
2023/08/22 09:41:28;;;;;;;5.57;0.90;;;26.50;99.90;;;;;;5035147;28;20481;-73
2023/08/22 09:43:58;;;;;;;3.63;0.90;;;26.50;99.90;;;;;;5026131;28;20452;-73
2023/08/22 09:46:24;;;;;;;5.90;1.13;;;26.30;99.90;;;;;;4328016;28;10000517;-73
2023/08/22 09:48:50;;;;;;;4.97;1.10;;;26.00;99.90;;;;;;3980240;28;10000743;-74
2023/08/22 09:51:20;;;;;;;4.78;0.90;;;26.60;99.90;;;;;;5037512;28;20594;-74
2023/08/22 09:53:59;;;;;;;4.07;1.00;;;28.10;99.60;;;;;;5040892;28;20379;-73
2023/08/22 09:56:26;;;;;;;8.35;1.20;;;30.40;93.20;;;;;;5023276;28;20040;-74
2023/08/22 09:58:52;;;;;;;2.25;0.70;;;33.40;83.50;;;;;;5036641;28;20037;-73
2023/08/22 10:01:20;;;;;;;3.15;1.10;;;36.10;75.50;;;;;;5027056;28;20108;-73
2023/08/22 10:03:50;;;;;;;3.20;0.90;;;36.40;59.30;;;;;;5028352;28;20127;-73
2023/08/22 10:06:15;;;;;;;5.70;1.20;;;35.70;64.00;;;;;;5038787;28;20450;-77
2023/08/22 10:08:42;;;;;;;2.22;0.75;;;34.60;63.20;;;;;;5029109;28;20109;-73
2023/08/22 10:11:10;;;;;;;4.00;0.77;;;33.60;64.70;;;;;;5017563;28;20480;-73
2023/08/22 10:13:37;;;;;;;3.53;0.63;;;32.80;68.00;;;;;;5024363;28;20021;-73
2023/08/22 10:16:03;;;;;;;3.75;0.70;;;32.00;68.70;;;;;;5027966;28;20095;-73
2023/08/22 10:18:29;;;;;;;4.03;1.00;;;31.20;73.40;;;;;;5008223;28;20124;-72
2023/08/22 10:20:56;;;;;;;3.92;0.70;;;31.00;76.60;;;;;;5033481;28;20032;-72
2023/08/22 10:23:52;;;;;;;2.70;0.52;;;31.70;76.00;;;;;;5035017;28;20112;-73
2023/08/22 10:26:22;;;;;;;4.78;0.60;;;33.70;68.70;;;;;;5014829;28;20037;-73
2023/08/22 10:29:17;;;;;;;2.60;0.60;;;36.10;64.10;;;;;;5036339;28;20291;-73
2023/08/22 10:32:00;;;;;;;4.82;0.80;;;36.30;58.80;;;;;;5025496;28;20378;-73
2023/08/22 10:34:27;;;;;;;5.72;0.60;;;35.10;59.90;;;;;;5014192;28;20021;-73
2023/08/22 10:36:57;;;;;;;3.33;0.95;;;32.90;64.20;;;;;;5036391;28;20277;-73
2023/08/22 10:39:37;;;;;;;3.75;0.80;;;31.70;69.00;;;;;;5002348;28;20108;-72
2023/08/22 10:42:03;;;;;;;3.83;0.88;;;30.60;74.60;;;;;;5033147;28;20036;-72
2023/08/22 10:44:30;;;;;;;3.25;0.70;;;30.30;81.30;;;;;;5036105;28;20036;-73
2023/08/22 10:47:03;;;;;;;3.13;0.60;;;31.00;75.10;;;;;;5034669;28;20025;-73
2023/08/22 10:49:33;;;;;;;4.05;0.70;;;32.70;78.20;;;;;;5037443;28;20032;-73
2023/08/22 10:52:06;;;;;;;4.35;0.60;;;34.50;68.20;;;;;;5037260;28;20258;-72
2023/08/22 10:54:33;;;;;;;4.32;0.70;;;34.60;64.00;;;;;;5036218;28;20380;-73
2023/08/22 10:57:20;;;;;;;3.25;0.80;;;33.70;65.20;;;;;;5033968;28;20017;-73
2023/08/22 11:00:18;;;;;;;4.30;0.80;;;32.60;65.50;;;;;;5035522;28;20048;-73
2023/08/22 11:02:45;;;;;;;3.42;1.00;;;31.40;66.10;;;;;;5007419;28;20039;-73
2023/08/22 11:05:13;;;;;;;4.55;1.02;;;30.60;70.80;;;;;;5034651;28;20079;-72
2023/08/22 11:07:40;;;;;;;4.60;0.90;;;30.30;72.70;;;;;;5034171;28;20040;-73
2023/08/22 11:10:08;;;;;;;4.53;0.80;;;30.70;77.40;;;;;;5017186;28;21466;-73
2023/08/22 11:12:41;;;;;;;3.46;0.91;;;32.70;80.50;;;;;;4928502;28;10000872;-73
2023/08/22 11:15:07;;;;;;;4.50;0.90;;;33.70;69.20;;;;;;4311638;28;10000405;-73
2023/08/22 11:17:37;;;;;;;5.95;0.90;;;33.60;64.80;;;;;;5017343;28;20454;-73
2023/08/22 11:20:04;;;;;;;5.70;1.10;;;32.30;66.30;;;;;;5017740;28;20068;-73
2023/08/22 11:22:31;;;;;;;4.80;0.75;;;31.60;70.50;;;;;;4997237;28;20286;-73
2023/08/22 11:24:57;;;;;;;5.03;0.70;;;30.80;73.00;;;;;;5016949;28;20021;-73
2023/08/22 11:27:23;;;;;;;2.78;0.70;;;31.20;77.80;;;;;;5020405;28;20480;-72
2023/08/22 11:29:50;;;;;;;5.90;1.00;;;31.50;73.00;;;;;;5024575;28;20069;-73
2023/08/22 11:32:22;;;;;;;4.50;0.95;;;31.50;73.10;;;;;;5021880;28;20024;-72
2023/08/22 11:34:55;;;;;;;4.20;1.20;;;31.50;70.90;;;;;;5017842;28;20677;-72
2023/08/22 11:37:22;;;;;;;5.00;0.98;;;31.00;71.80;;;;;;5022126;28;20029;-73
2023/08/22 11:39:52;;;;;;;5.10;1.00;;;30.00;76.60;;;;;;5020216;28;20143;-72
2023/08/22 11:42:20;;;;;;;4.57;1.13;;;30.00;76.90;;;;;;5024389;28;20068;-73
2023/08/22 11:45:05;;;;;;;3.65;0.88;;;29.70;80.70;;;;;;4679024;28;10000449;-73
2023/08/22 11:47:41;;;;;;;3.55;0.77;;;29.80;82.60;;;;;;4999313;28;20029;-73
2023/08/22 11:50:17;;;;;;;6.13;1.00;;;29.90;91.50;;;;;;5019536;28;20029;-73
2023/08/22 11:52:44;;;;;;;5.47;1.08;;;30.50;92.70;;;;;;5023274;28;20073;-72
2023/08/22 11:55:11;;;;;;;4.53;1.02;;;30.80;79.70;;;;;;5014442;28;20122;-73
2023/08/22 11:57:41;;;;;;;6.80;1.30;;;30.70;85.60;;;;;;5025616;28;20396;-73
2023/08/22 12:00:10;;;;;;;3.63;0.85;;;30.40;90.00;;;;;;5005641;28;20043;-74
2023/08/22 12:02:36;;;;;;;3.47;0.75;;;30.00;85.40;;;;;;5008365;28;20028;-73
2023/08/22 12:05:03;;;;;;;6.88;1.13;;;30.30;90.50;;;;;;5023026;28;20063;-73
2023/08/22 12:07:29;;;;;;;5.68;1.00;;;29.70;85.30;;;;;;5006782;28;20025;-73
2023/08/22 12:10:07;;;;;;;6.05;0.95;;;29.20;85.70;;;;;;5008348;28;20663;-73
2023/08/22 12:12:32;;;;;;;3.92;0.90;;;28.80;91.30;;;;;;5022771;28;20611;-73
2023/08/22 12:14:59;;;;;;;4.80;0.90;;;29.60;93.40;;;;;;5027020;28;20105;-73
2023/08/22 12:17:25;;;;;;;5.03;0.80;;;30.30;89.70;;;;;;5022068;28;20058;-75
2023/08/22 12:19:51;;;;;;;5.35;1.00;;;30.80;86.20;;;;;;5022542;28;20463;-72
2023/08/22 12:22:17;;;;;;;2.53;1.02;;;30.40;85.60;;;;;;5016838;28;20021;-71
2023/08/22 12:24:48;;;;;;;6.40;0.85;;;30.10;90.00;;;;;;5023940;28;20452;-73
2023/08/22 12:27:13;;;;;;;3.78;0.95;;;29.60;91.70;;;;;;5009925;28;20116;-73
2023/08/22 12:29:40;;;;;;;4.10;0.90;;;29.80;93.10;;;;;;5031757;28;20064;-73
2023/08/22 12:32:06;;;;;;;3.88;1.13;;;29.00;91.00;;;;;;5030941;28;20224;-73
2023/08/22 12:34:31;;;;;;;5.20;1.10;;;28.10;91.10;;;;;;5030506;28;20033;-72
2023/08/22 12:36:58;;;;;;;2.75;1.00;;;28.30;99.20;;;;;;5032106;28;20036;-72
2023/08/22 12:39:23;;;;;;;5.50;0.80;;;28.80;94.60;;;;;;5038899;28;20526;-73
2023/08/22 12:41:49;;;;;;;4.95;1.17;;;28.80;94.50;;;;;;5036502;28;20029;-73
2023/08/22 12:44:14;;;;;;;6.15;1.00;;;28.60;92.30;;;;;;5038460;28;20033;-73
2023/08/22 12:46:41;;;;;;;3.03;0.88;;;28.50;92.60;;;;;;5013268;28;20476;-72